Time;durP1;ratioP1;P1;durP2;ratioP2;P2;SDS_P1;SDS_P2;PMS_P1;PMS_P2;Temp;Humidity;BMP_temperature;BMP_pressure;BME280_temperature;BME280_humidity;BME280_pressure;Samples;Min_cycle;Max_cycle;Signal;HPM_P1;HPM_P2
2023/03/23 00:00:56;;;;;;;2.60;1.48;;;;;;;;;;5074652;28;20024;-78
2023/03/23 00:03:21;;;;;;;2.85;1.70;;;;;;;;;;5093211;28;20028;-79
2023/03/23 00:05:50;;;;;;;1.95;1.50;;;;;;;;;;5092432;28;20040;-79
2023/03/23 00:08:22;;;;;;;2.20;1.35;;;;;;;;;;5092009;28;20035;-79
2023/03/23 00:10:52;;;;;;;2.53;1.30;;;;;;;;;;5094930;28;20372;-79
2023/03/23 00:13:19;;;;;;;2.50;1.55;;;;;;;;;;5096223;28;20039;-78
2023/03/23 00:15:45;;;;;;;1.50;1.40;;;;;;;;;;5094923;28;20039;-78
2023/03/23 00:18:21;;;;;;;3.80;1.80;;;;;;;;;;5095103;28;20398;-78
2023/03/23 00:20:55;;;;;;;3.53;1.42;;;;;;;;;;5096566;28;20043;-78
2023/03/23 00:23:25;;;;;;;3.35;1.40;;;;;;;;;;5094774;28;20030;-78
2023/03/23 00:25:57;;;;;;;2.53;1.50;;;;;;;;;;5095920;28;20066;-78
2023/03/23 00:28:24;;;;;;;2.38;1.38;;;;;;;;;;5095111;28;20093;-78
2023/03/23 00:30:58;;;;;;;1.98;1.30;;;;;;;;;;5094672;28;20372;-79
2023/03/23 00:33:24;;;;;;;2.53;1.38;;;;;;;;;;5094917;28;20077;-79
2023/03/23 00:35:52;;;;;;;2.53;1.40;;;;;;;;;;5094642;28;20248;-79
2023/03/23 00:38:19;;;;;;;2.58;1.35;;;;;;;;;;5094639;28;20455;-79
2023/03/23 00:40:46;;;;;;;4.30;1.40;;;;;;;;;;5094618;28;20056;-78
2023/03/23 00:43:13;;;;;;;3.58;1.70;;;;;;;;;;5077745;28;20453;-78
2023/03/23 00:45:39;;;;;;;2.83;1.40;;;;;;;;;;5077720;28;20036;-79
2023/03/23 00:48:04;;;;;;;3.03;1.63;;;;;;;;;;5077568;28;20098;-79
2023/03/23 00:50:31;;;;;;;3.28;1.65;;;;;;;;;;5094291;28;20052;-79
2023/03/23 00:52:56;;;;;;;2.33;1.20;;;;;;;;;;5094100;28;20390;-79
2023/03/23 00:55:23;;;;;;;2.05;1.40;;;;;;;;;;5095656;28;20035;-79
2023/03/23 00:57:50;;;;;;;2.53;1.30;;;;;;;;;;5094210;28;20436;-79
2023/03/23 01:00:16;;;;;;;3.38;1.60;;;;;;;;;;5095285;28;20020;-79
2023/03/23 01:02:44;;;;;;;1.90;1.20;;;;;;;;;;5095442;28;20498;-79
2023/03/23 01:05:10;;;;;;;5.47;1.30;;;;;;;;;;5095261;28;20032;-80
2023/03/23 01:07:36;;;;;;;1.52;1.40;;;;;;;;;;5094032;28;20114;-79
2023/03/23 01:10:02;;;;;;;2.03;1.20;;;;;;;;;;5094243;28;20086;-79
2023/03/23 01:12:28;;;;;;;2.78;1.40;;;;;;;;;;5095091;28;20024;-79
2023/03/23 01:14:53;;;;;;;3.00;1.40;;;;;;;;;;5076991;28;20043;-79
2023/03/23 01:17:19;;;;;;;1.55;1.20;;;;;;;;;;5077132;28;20024;-78
2023/03/23 01:19:45;;;;;;;2.15;1.55;;;;;;;;;;5093568;28;20108;-79
2023/03/23 01:22:10;;;;;;;1.85;1.30;;;;;;;;;;5093703;28;20402;-79
2023/03/23 01:24:35;;;;;;;2.17;1.35;;;;;;;;;;5076745;28;20035;-78
2023/03/23 01:27:06;;;;;;;2.95;1.38;;;;;;;;;;5094104;28;20446;-79
2023/03/23 01:29:33;;;;;;;1.92;1.17;;;;;;;;;;5095102;28;20032;-78
2023/03/23 01:31:58;;;;;;;2.10;1.23;;;;;;;;;;5076428;28;20024;-78
2023/03/23 01:34:24;;;;;;;4.70;1.45;;;;;;;;;;5095100;28;20107;-78
2023/03/23 01:36:49;;;;;;;1.85;1.35;;;;;;;;;;5093435;28;20030;-78
2023/03/23 01:39:15;;;;;;;2.25;1.33;;;;;;;;;;5093274;28;20032;-78
2023/03/23 01:41:41;;;;;;;3.33;1.42;;;;;;;;;;5094612;28;20035;-78
2023/03/23 01:44:15;;;;;;;1.58;1.20;;;;;;;;;;5093302;28;20032;-78
2023/03/23 01:46:41;;;;;;;1.60;1.20;;;;;;;;;;5094616;28;20398;-78
2023/03/23 01:49:16;;;;;;;2.75;1.23;;;;;;;;;;5093767;28;20028;-78
2023/03/23 01:51:50;;;;;;;1.92;1.25;;;;;;;;;;5092976;28;20109;-78
2023/03/23 01:54:19;;;;;;;1.55;1.25;;;;;;;;;;5076185;28;20023;-78
2023/03/23 01:56:49;;;;;;;1.80;1.10;;;;;;;;;;5093338;28;20043;-79
2023/03/23 01:59:15;;;;;;;4.75;1.50;;;;;;;;;;5092945;28;20394;-79
2023/03/23 02:01:44;;;;;;;2.75;1.35;;;;;;;;;;5076129;28;20050;-79
2023/03/23 02:04:12;;;;;;;1.58;1.33;;;;;;;;;;5092806;28;20028;-79
2023/03/23 02:06:37;;;;;;;1.40;1.05;;;;;;;;;;5093041;28;20055;-78
2023/03/23 02:09:05;;;;;;;4.80;1.38;;;;;;;;;;5093832;28;20475;-78
2023/03/23 02:11:31;;;;;;;1.67;1.25;;;;;;;;;;5093927;28;20426;-80
2023/03/23 02:13:56;;;;;;;2.58;1.40;;;;;;;;;;5075462;28;20028;-79
2023/03/23 02:16:48;;;;;;;1.67;1.23;;;;;;;;;;5092526;28;20085;-79
2023/03/23 02:19:36;;;;;;;2.65;1.30;;;;;;;;;;5092615;28;20466;-79
2023/03/23 02:22:25;;;;;;;1.40;1.00;;;;;;;;;;5094014;28;20092;-79
2023/03/23 02:25:18;;;;;;;2.67;1.50;;;;;;;;;;5092194;28;20475;-79
2023/03/23 02:27:49;;;;;;;1.85;1.25;;;;;;;;;;5093364;28;20035;-79
2023/03/23 02:30:31;;;;;;;2.42;1.30;;;;;;;;;;5093688;28;20366;-79
2023/03/23 02:33:13;;;;;;;2.13;1.25;;;;;;;;;;5074421;28;20024;-79
2023/03/23 02:35:44;;;;;;;3.10;1.25;;;;;;;;;;5092345;28;20024;-79
2023/03/23 02:38:18;;;;;;;2.70;1.35;;;;;;;;;;5092534;28;20537;-78
2023/03/23 02:40:46;;;;;;;1.83;1.30;;;;;;;;;;5092697;28;20039;-78
2023/03/23 02:43:16;;;;;;;1.42;1.30;;;;;;;;;;5092243;28;20016;-78
2023/03/23 02:45:44;;;;;;;1.98;1.35;;;;;;;;;;5093031;28;20039;-78
2023/03/23 02:48:10;;;;;;;2.53;1.23;;;;;;;;;;5092251;28;20016;-78
2023/03/23 02:50:36;;;;;;;6.28;1.40;;;;;;;;;;5058259;28;20102;-78
2023/03/23 02:53:04;;;;;;;3.42;1.25;;;;;;;;;;5092189;28;20406;-79
2023/03/23 02:55:29;;;;;;;1.40;1.30;;;;;;;;;;5092414;28;20493;-78
2023/03/23 02:57:55;;;;;;;2.15;1.27;;;;;;;;;;5092283;28;20036;-78
2023/03/23 03:00:21;;;;;;;1.10;1.00;;;;;;;;;;5092041;28;20103;-78
2023/03/23 03:02:52;;;;;;;3.17;1.00;;;;;;;;;;5075162;28;20460;-78
2023/03/23 03:05:51;;;;;;;1.80;1.33;;;;;;;;;;5091972;28;20027;-78
2023/03/23 03:08:46;;;;;;;4.35;1.20;;;;;;;;;;5093453;28;20562;-78
2023/03/23 03:11:13;;;;;;;2.70;1.20;;;;;;;;;;5075239;28;20081;-79
2023/03/23 03:14:03;;;;;;;1.10;1.10;;;;;;;;;;5074974;28;20024;-79
2023/03/23 03:17:10;;;;;;;2.05;1.10;;;;;;;;;;5091999;28;20040;-79
2023/03/23 03:19:39;;;;;;;1.60;1.17;;;;;;;;;;5014863;28;20476;-79
2023/03/23 03:22:05;;;;;;;2.10;1.20;;;;;;;;;;4998133;28;20471;-79
2023/03/23 03:24:31;;;;;;;1.20;1.10;;;;;;;;;;5014679;28;20124;-78
2023/03/23 03:26:59;;;;;;;1.10;0.98;;;;;;;;;;5014252;28;20039;-79
2023/03/23 03:29:30;;;;;;;1.70;1.10;;;;;;;;;;5014335;28;20228;-79
2023/03/23 03:31:58;;;;;;;1.00;0.90;;;;;;;;;;4998011;28;20037;-79
2023/03/23 03:34:24;;;;;;;2.13;1.33;;;;;;;;;;5014245;28;20030;-79
2023/03/23 03:36:51;;;;;;;4.00;1.20;;;;;;;;;;4998484;28;20499;-79
2023/03/23 03:39:17;;;;;;;3.28;1.40;;;;;;;;;;5030764;28;20025;-79
2023/03/23 03:41:43;;;;;;;2.38;1.25;;;;;;;;;;4998099;28;20492;-78
2023/03/23 03:44:09;;;;;;;2.22;1.10;;;;;;;;;;5015970;28;20049;-78
2023/03/23 03:46:36;;;;;;;1.48;1.08;;;;;;;;;;5034603;28;20034;-78
2023/03/23 03:49:03;;;;;;;2.28;1.35;;;;;;;;;;5018037;28;20471;-78
2023/03/23 03:51:30;;;;;;;2.20;1.20;;;;;;;;;;5096631;28;20051;-79
2023/03/23 03:53:56;;;;;;;9.13;1.50;;;;;;;;;;5095665;28;20026;-80
2023/03/23 03:56:21;;;;;;;1.00;1.00;;;;;;;;;;5095434;28;20024;-79
2023/03/23 03:58:48;;;;;;;2.60;1.58;;;;;;;;;;5095430;28;20023;-79
2023/03/23 04:01:14;;;;;;;2.28;1.20;;;;;;;;;;5096602;28;20024;-80
2023/03/23 04:03:40;;;;;;;1.08;0.90;;;;;;;;;;5078326;28;20028;-79
2023/03/23 04:06:06;;;;;;;2.70;1.45;;;;;;;;;;5095175;28;20036;-79
2023/03/23 04:08:32;;;;;;;3.20;1.27;;;;;;;;;;5078784;28;20226;-79
2023/03/23 04:10:57;;;;;;;2.50;1.10;;;;;;;;;;5078172;28;20458;-79
2023/03/23 04:13:23;;;;;;;2.53;1.40;;;;;;;;;;5096276;28;20031;-79
2023/03/23 04:15:49;;;;;;;1.83;1.20;;;;;;;;;;5095197;28;20024;-79
2023/03/23 04:18:17;;;;;;;5.65;1.30;;;;;;;;;;5077940;28;20459;-80
2023/03/23 04:20:44;;;;;;;2.03;1.27;;;;;;;;;;5078384;28;20032;-78
2023/03/23 04:23:10;;;;;;;1.35;0.90;;;;;;;;;;5094803;28;20050;-78
2023/03/23 04:25:35;;;;;;;4.03;1.50;;;;;;;;;;5094821;28;20474;-78
2023/03/23 04:28:01;;;;;;;2.70;1.35;;;;;;;;;;5096262;28;20056;-79
2023/03/23 04:30:27;;;;;;;3.80;1.23;;;;;;;;;;5078246;28;20039;-79
2023/03/23 04:32:54;;;;;;;2.15;1.33;;;;;;;;;;5078282;28;20118;-79
2023/03/23 04:35:21;;;;;;;1.88;1.23;;;;;;;;;;5095837;28;20031;-79
2023/03/23 04:37:47;;;;;;;1.40;1.10;;;;;;;;;;5095944;28;20093;-79
2023/03/23 04:40:14;;;;;;;1.83;1.10;;;;;;;;;;5095742;28;20028;-79
2023/03/23 04:42:45;;;;;;;1.00;0.90;;;;;;;;;;5077917;28;20035;-79
2023/03/23 04:45:10;;;;;;;2.53;1.08;;;;;;;;;;5077930;28;20036;-78
2023/03/23 04:47:39;;;;;;;2.22;1.30;;;;;;;;;;5095649;28;20035;-78
2023/03/23 04:50:11;;;;;;;1.58;1.20;;;;;;;;;;5094213;28;20028;-78
2023/03/23 04:52:37;;;;;;;1.73;1.15;;;;;;;;;;5094666;28;20092;-78
2023/03/23 04:55:05;;;;;;;5.47;1.30;;;;;;;;;;5093188;28;20114;-78
2023/03/23 04:57:31;;;;;;;2.30;1.30;;;;;;;;;;5094609;28;20116;-78
2023/03/23 04:59:57;;;;;;;1.67;1.23;;;;;;;;;;5094827;28;20035;-78
2023/03/23 05:02:22;;;;;;;1.45;1.20;;;;;;;;;;5077143;28;20036;-79
2023/03/23 05:04:48;;;;;;;3.30;1.58;;;;;;;;;;5094402;28;20023;-79
2023/03/23 05:07:14;;;;;;;3.30;1.50;;;;;;;;;;5077518;28;20077;-79
2023/03/23 05:09:39;;;;;;;3.47;1.33;;;;;;;;;;5060591;28;20024;-79
2023/03/23 05:12:09;;;;;;;1.80;1.00;;;;;;;;;;5094430;28;20040;-79
2023/03/23 05:14:35;;;;;;;2.90;1.15;;;;;;;;;;5094475;28;20032;-79
2023/03/23 05:17:00;;;;;;;4.78;1.30;;;;;;;;;;5094368;28;20046;-79
2023/03/23 05:19:27;;;;;;;5.13;1.55;;;;;;;;;;5095382;28;20089;-79
2023/03/23 05:21:53;;;;;;;5.07;1.48;;;;;;;;;;5095244;28;20089;-78
2023/03/23 05:24:19;;;;;;;2.60;1.23;;;;;;;;;;5077211;28;20024;-79
2023/03/23 05:26:48;;;;;;;3.97;1.60;;;;;;;;;;5095460;28;20035;-79
2023/03/23 05:29:14;;;;;;;3.67;1.42;;;;;;;;;;5095091;28;20032;-78
2023/03/23 05:31:39;;;;;;;3.15;1.50;;;;;;;;;;5095509;28;20024;-77
2023/03/23 05:34:05;;;;;;;4.20;1.80;;;;;;;;;;5093791;28;20498;-78
2023/03/23 05:36:30;;;;;;;3.13;1.40;;;;;;;;;;5094963;28;20031;-78
2023/03/23 05:38:59;;;;;;;3.40;1.55;;;;;;;;;;5093010;28;20036;-77
2023/03/23 05:41:25;;;;;;;2.90;1.20;;;;;;;;;;5094267;28;20082;-78
2023/03/23 05:43:50;;;;;;;5.28;1.40;;;;;;;;;;5092926;28;20035;-78
2023/03/23 05:46:16;;;;;;;2.42;1.20;;;;;;;;;;5092958;28;20078;-79
2023/03/23 05:48:41;;;;;;;4.38;1.40;;;;;;;;;;5075982;28;20035;-80
2023/03/23 05:51:07;;;;;;;6.55;1.50;;;;;;;;;;5094002;28;20052;-78
2023/03/23 05:53:33;;;;;;;2.85;1.30;;;;;;;;;;5095149;28;20061;-78
2023/03/23 05:56:00;;;;;;;5.22;1.30;;;;;;;;;;5093039;28;20085;-80
2023/03/23 05:58:25;;;;;;;3.42;1.33;;;;;;;;;;5094380;28;20054;-81
2023/03/23 06:00:51;;;;;;;3.75;1.40;;;;;;;;;;5076014;28;20063;-79
2023/03/23 06:03:16;;;;;;;4.45;1.60;;;;;;;;;;5094176;28;20467;-79
2023/03/23 06:05:46;;;;;;;3.72;1.35;;;;;;;;;;5094596;28;20035;-78
2023/03/23 06:08:12;;;;;;;3.35;1.73;;;;;;;;;;5093181;28;20077;-78
2023/03/23 06:10:37;;;;;;;4.80;1.60;;;;;;;;;;5093323;28;20032;-78
2023/03/23 06:13:04;;;;;;;5.82;1.90;;;;;;;;;;5094654;28;20054;-79
2023/03/23 06:15:32;;;;;;;4.93;1.42;;;;;;;;;;5095148;28;20028;-78
2023/03/23 06:18:01;;;;;;;3.03;1.48;;;;;;;;;;5076127;28;20035;-79
2023/03/23 06:20:27;;;;;;;7.05;1.70;;;;;;;;;;5076121;28;20069;-79
2023/03/23 06:22:52;;;;;;;5.57;1.50;;;;;;;;;;5093023;28;20024;-79
2023/03/23 06:25:18;;;;;;;5.53;1.55;;;;;;;;;;5093459;28;20043;-80
2023/03/23 06:27:45;;;;;;;4.40;1.50;;;;;;;;;;5092928;28;20024;-79
2023/03/23 06:30:14;;;;;;;5.90;1.70;;;;;;;;;;5092620;28;20450;-79
2023/03/23 06:32:39;;;;;;;5.00;1.70;;;;;;;;;;5059689;28;20474;-79
2023/03/23 06:35:09;;;;;;;4.75;1.73;;;;;;;;;;5092752;28;20103;-79
2023/03/23 06:37:35;;;;;;;4.07;1.65;;;;;;;;;;5076288;28;20024;-79
2023/03/23 06:40:00;;;;;;;5.75;1.88;;;;;;;;;;5092835;28;20104;-79
2023/03/23 06:42:26;;;;;;;5.00;1.60;;;;;;;;;;5075744;28;20363;-80
2023/03/23 06:44:52;;;;;;;4.30;1.50;;;;;;;;;;5092949;28;20024;-79
2023/03/23 06:47:17;;;;;;;3.60;1.38;;;;;;;;;;5092568;28;20032;-79
2023/03/23 06:49:43;;;;;;;3.40;1.48;;;;;;;;;;5093712;28;20076;-79
2023/03/23 06:52:08;;;;;;;1.63;1.10;;;;;;;;;;5092428;28;20182;-79
2023/03/23 06:54:34;;;;;;;11.32;1.65;;;;;;;;;;5092514;28;20490;-80
2023/03/23 06:56:59;;;;;;;2.17;1.10;;;;;;;;;;5093755;28;20024;-79
2023/03/23 06:59:24;;;;;;;4.35;1.40;;;;;;;;;;5092371;28;20028;-79
2023/03/23 07:01:50;;;;;;;2.30;1.25;;;;;;;;;;5092221;28;20406;-79
2023/03/23 07:04:16;;;;;;;4.25;1.60;;;;;;;;;;5092227;28;20383;-79
2023/03/23 07:06:41;;;;;;;3.10;1.63;;;;;;;;;;5092744;28;20047;-79
2023/03/23 07:09:07;;;;;;;5.70;1.60;;;;;;;;;;5092075;28;20055;-80
2023/03/23 07:11:32;;;;;;;3.08;1.42;;;;;;;;;;5075325;28;20039;-79
2023/03/23 07:13:58;;;;;;;2.88;1.13;;;;;;;;;;5092389;28;20034;-80
2023/03/23 07:16:23;;;;;;;3.40;1.50;;;;;;;;;;5093740;28;20556;-79
2023/03/23 07:18:48;;;;;;;3.10;1.33;;;;;;;;;;5095439;28;20437;-80
2023/03/23 07:21:14;;;;;;;2.53;1.30;;;;;;;;;;5096842;28;20387;-79
2023/03/23 07:23:40;;;;;;;3.10;1.52;;;;;;;;;;5097576;28;20031;-79
2023/03/23 07:26:06;;;;;;;3.92;1.42;;;;;;;;;;5096004;28;20024;-79
2023/03/23 07:28:32;;;;;;;3.58;1.52;;;;;;;;;;5079493;28;20024;-79
2023/03/23 07:30:57;;;;;;;4.60;1.65;;;;;;;;;;5097277;28;20470;-80
2023/03/23 07:33:23;;;;;;;2.08;1.40;;;;;;;;;;5062231;28;20031;-79
2023/03/23 07:35:48;;;;;;;4.72;1.42;;;;;;;;;;5079239;28;20032;-79
2023/03/23 07:38:14;;;;;;;4.10;1.50;;;;;;;;;;5095879;28;20039;-80
2023/03/23 07:40:40;;;;;;;4.63;1.17;;;;;;;;;;5096159;28;20074;-80
2023/03/23 07:43:06;;;;;;;6.50;1.40;;;;;;;;;;5097585;28;20032;-81
2023/03/23 07:45:31;;;;;;;3.75;1.30;;;;;;;;;;5096419;28;20051;-80
2023/03/23 07:47:57;;;;;;;3.95;1.27;;;;;;;;;;5096964;28;20448;-79
2023/03/23 07:50:24;;;;;;;4.88;1.50;;;;;;;;;;5096825;28;20055;-79
2023/03/23 07:52:53;;;;;;;3.20;1.40;;;;;;;;;;5095732;28;20516;-79
2023/03/23 07:55:19;;;;;;;4.13;1.20;;;;;;;;;;5095627;28;20036;-79
2023/03/23 07:57:46;;;;;;;6.57;1.70;;;;;;;;;;5078829;28;20394;-79
2023/03/23 08:00:15;;;;;;;2.30;1.20;;;;;;;;;;5095430;28;20016;-79
2023/03/23 08:02:41;;;;;;;4.82;1.17;;;;;;;;;;5095530;28;20081;-79
2023/03/23 08:05:08;;;;;;;2.35;1.48;;;;;;;;;;5095406;28;20027;-79
2023/03/23 08:07:34;;;;;;;4.10;1.58;;;;;;;;;;5095280;28;20017;-79
2023/03/23 08:10:00;;;;;;;2.88;1.23;;;;;;;;;;5095287;28;20034;-79
2023/03/23 08:12:26;;;;;;;3.08;1.45;;;;;;;;;;5096441;28;20028;-79
2023/03/23 08:14:53;;;;;;;3.20;1.40;;;;;;;;;;5095451;28;20036;-79
2023/03/23 08:17:19;;;;;;;2.78;1.15;;;;;;;;;;5095641;28;20505;-80
2023/03/23 08:19:45;;;;;;;2.80;1.20;;;;;;;;;;5096672;28;20028;-80
2023/03/23 08:22:11;;;;;;;3.28;1.40;;;;;;;;;;5096409;28;20032;-80
2023/03/23 08:24:36;;;;;;;3.03;1.40;;;;;;;;;;5078076;28;20471;-80
2023/03/23 08:27:02;;;;;;;2.90;1.10;;;;;;;;;;5095015;28;20379;-80
2023/03/23 08:29:28;;;;;;;2.40;1.30;;;;;;;;;;5095356;28;20036;-80
2023/03/23 08:31:53;;;;;;;5.25;1.40;;;;;;;;;;5096327;28;20440;-80
2023/03/23 08:34:20;;;;;;;2.22;1.30;;;;;;;;;;5094219;28;20115;-80
2023/03/23 08:36:46;;;;;;;3.90;1.50;;;;;;;;;;5074440;28;20097;-80
2023/03/23 08:39:12;;;;;;;3.65;1.25;;;;;;;;;;5057877;28;20033;-81
2023/03/23 08:41:38;;;;;;;4.53;1.50;;;;;;;;;;5094914;28;20526;-81
2023/03/23 08:44:05;;;;;;;3.25;1.70;;;;;;;;;;5077980;28;20028;-82
2023/03/23 08:46:30;;;;;;;3.78;1.40;;;;;;;;;;5095853;28;20032;-80
2023/03/23 08:48:56;;;;;;;2.80;1.20;;;;;;;;;;5094686;28;20043;-80
2023/03/23 08:51:21;;;;;;;3.92;1.38;;;;;;;;;;5094469;28;20062;-80
2023/03/23 08:53:47;;;;;;;3.58;1.25;;;;;;;;;;5094817;28;20123;-80
2023/03/23 08:56:13;;;;;;;2.55;1.63;;;;;;;;;;5093936;28;20047;-80
2023/03/23 08:58:39;;;;;;;1.88;1.10;;;;;;;;;;5077761;28;20032;-80
2023/03/23 09:01:06;;;;;;;2.80;1.15;;;;;;;;;;5093885;28;20417;-81
2023/03/23 09:03:32;;;;;;;2.28;1.17;;;;;;;;;;5077483;28;20036;-82
2023/03/23 09:06:03;;;;;;;6.30;1.50;;;;;;;;;;5094722;28;20024;-81
2023/03/23 09:08:30;;;;;;;2.97;1.50;;;;;;;;;;5094415;28;20028;-79
2023/03/23 09:11:07;;;;;;;4.03;1.30;;;;;;;;;;5094680;28;20028;-80
2023/03/23 09:13:34;;;;;;;5.05;1.27;;;;;;;;;;5094414;28;20484;-81
2023/03/23 09:15:59;;;;;;;2.53;1.40;;;;;;;;;;5096093;28;20032;-80
2023/03/23 09:18:25;;;;;;;3.72;1.30;;;;;;;;;;5094098;28;20081;-81
2023/03/23 09:20:51;;;;;;;2.75;1.25;;;;;;;;;;5077061;28;20038;-81
2023/03/23 09:23:17;;;;;;;1.90;1.17;;;;;;;;;;5094103;28;20023;-80
2023/03/23 09:25:42;;;;;;;2.22;1.20;;;;;;;;;;5093891;28;20024;-81
2023/03/23 09:28:08;;;;;;;3.15;1.52;;;;;;;;;;5078510;28;20024;-82
2023/03/23 09:30:37;;;;;;;5.40;1.40;;;;;;;;;;5094663;28;20367;-81
2023/03/23 09:33:04;;;;;;;3.75;1.50;;;;;;;;;;5079098;28;20028;-82
2023/03/23 09:35:31;;;;;;;4.13;1.52;;;;;;;;;;5076860;28;20054;-81
2023/03/23 09:38:00;;;;;;;4.55;1.42;;;;;;;;;;5094026;28;20028;-81
2023/03/23 09:40:32;;;;;;;6.90;1.77;;;;;;;;;;5093554;28;20024;-81
2023/03/23 09:43:17;;;;;;;3.83;1.50;;;;;;;;;;5093096;28;20019;-80
2023/03/23 09:45:56;;;;;;;5.80;1.23;;;;;;;;;;5093556;28;20043;-80
2023/03/23 09:48:42;;;;;;;4.95;1.35;;;;;;;;;;5093776;28;20028;-81
2023/03/23 09:51:30;;;;;;;5.47;1.42;;;;;;;;;;5093521;28;20066;-82
2023/03/23 09:54:01;;;;;;;4.20;1.50;;;;;;;;;;5084565;28;20032;-81
2023/03/23 09:56:32;;;;;;;3.38;1.50;;;;;;;;;;5093997;28;20023;-81
2023/03/23 09:59:24;;;;;;;5.07;1.40;;;;;;;;;;5093444;28;20024;-82
2023/03/23 10:01:55;;;;;;;2.75;1.40;;;;;;;;;;5095049;28;20020;-80
2023/03/23 10:04:33;;;;;;;4.18;1.30;;;;;;;;;;5093617;28;20115;-80
2023/03/23 10:07:19;;;;;;;4.28;1.58;;;;;;;;;;5095015;28;20028;-79
2023/03/23 10:09:50;;;;;;;6.00;1.17;;;;;;;;;;5084227;28;20073;-80
2023/03/23 10:12:41;;;;;;;6.35;1.65;;;;;;;;;;5066645;28;20131;-80
2023/03/23 10:15:42;;;;;;;6.88;1.67;;;;;;;;;;5081304;28;20135;-80
2023/03/23 10:18:29;;;;;;;3.42;1.30;;;;;;;;;;5059704;28;20403;-80
2023/03/23 10:20:58;;;;;;;2.95;1.15;;;;;;;;;;5076428;28;20482;-80
2023/03/23 10:23:58;;;;;;;13.18;1.90;;;;;;;;;;5094385;28;20028;-80
2023/03/23 10:26:55;;;;;;;6.97;1.40;;;;;;;;;;5093773;28;20024;-81
2023/03/23 10:29:23;;;;;;;5.78;1.48;;;;;;;;;;5094359;28;20031;-83
2023/03/23 10:32:11;;;;;;;6.00;1.50;;;;;;;;;;5099712;28;20028;-80
2023/03/23 10:34:56;;;;;;;6.35;1.75;;;;;;;;;;5092867;28;20107;-77
2023/03/23 10:37:24;;;;;;;5.50;1.52;;;;;;;;;;5092143;28;20032;-83
2023/03/23 10:39:56;;;;;;;4.70;1.90;;;;;;;;;;5092573;28;20016;-80
2023/03/23 10:42:31;;;;;;;4.18;1.63;;;;;;;;;;5092635;28;20037;-80
2023/03/23 10:44:59;;;;;;;3.90;1.63;;;;;;;;;;5072810;28;20043;-81
2023/03/23 10:47:24;;;;;;;5.88;1.77;;;;;;;;;;5073672;28;20028;-80
2023/03/23 10:49:58;;;;;;;8.45;2.50;;;;;;;;;;5085031;28;20342;-80
2023/03/23 10:52:39;;;;;;;8.18;2.47;;;;;;;;;;5091825;28;20036;-80
2023/03/23 10:55:16;;;;;;;8.43;2.03;;;;;;;;;;5092343;28;20073;-80
2023/03/23 10:57:45;;;;;;;8.93;2.22;;;;;;;;;;5092126;28;20051;-79
2023/03/23 11:00:13;;;;;;;5.05;1.98;;;;;;;;;;5092312;28;20379;-80
2023/03/23 11:02:56;;;;;;;6.97;2.13;;;;;;;;;;5092151;28;20032;-79
2023/03/23 11:05:26;;;;;;;5.30;1.83;;;;;;;;;;5092092;28;20060;-80
2023/03/23 11:07:56;;;;;;;5.80;2.13;;;;;;;;;;5092322;28;20036;-79
2023/03/23 11:10:36;;;;;;;6.78;1.75;;;;;;;;;;5092710;28;20482;-80
2023/03/23 11:13:04;;;;;;;5.65;1.92;;;;;;;;;;5092567;28;20134;-80
2023/03/23 11:15:32;;;;;;;7.22;1.80;;;;;;;;;;5092273;28;20419;-79
2023/03/23 11:18:00;;;;;;;9.63;2.05;;;;;;;;;;5092251;28;20016;-80
2023/03/23 11:20:28;;;;;;;5.28;1.75;;;;;;;;;;5093232;28;20082;-80
2023/03/23 11:22:54;;;;;;;12.00;2.10;;;;;;;;;;5093940;28;20020;-80
2023/03/23 11:25:19;;;;;;;5.75;1.60;;;;;;;;;;5075240;28;20034;-81
2023/03/23 11:27:45;;;;;;;8.20;2.00;;;;;;;;;;5092992;28;20078;-81
2023/03/23 11:30:21;;;;;;;5.63;1.85;;;;;;;;;;5091641;28;20096;-79
2023/03/23 11:32:47;;;;;;;6.10;2.08;;;;;;;;;;5073198;28;20020;-81
2023/03/23 11:35:27;;;;;;;3.05;1.25;;;;;;;;;;5092117;28;20089;-80
2023/03/23 11:37:54;;;;;;;6.07;1.90;;;;;;;;;;5074927;28;20027;-80
2023/03/23 11:40:23;;;;;;;11.77;1.92;;;;;;;;;;5092552;28;20031;-80
2023/03/23 11:42:59;;;;;;;4.88;1.30;;;;;;;;;;5091784;28;20479;-80
2023/03/23 11:45:33;;;;;;;6.97;2.20;;;;;;;;;;5075059;28;20111;-80
2023/03/23 11:47:59;;;;;;;8.45;1.60;;;;;;;;;;5091614;28;20028;-80
2023/03/23 11:50:29;;;;;;;5.22;1.75;;;;;;;;;;5092121;28;20138;-79
2023/03/23 11:53:02;;;;;;;4.82;1.50;;;;;;;;;;5091006;28;20058;-80
2023/03/23 11:55:52;;;;;;;6.22;1.75;;;;;;;;;;5091160;28;20110;-80
2023/03/23 11:58:18;;;;;;;3.25;1.33;;;;;;;;;;5091060;28;20020;-81
2023/03/23 12:01:06;;;;;;;6.68;1.80;;;;;;;;;;5090980;28;20079;-82
2023/03/23 12:03:46;;;;;;;5.55;1.83;;;;;;;;;;5091048;28;20107;-82
2023/03/23 12:06:20;;;;;;;4.40;1.80;;;;;;;;;;5094551;28;20024;-79
2023/03/23 12:08:53;;;;;;;;;;;;;;;;;;5095298;28;20429;-81
2023/03/23 12:11:37;;;;;;;5.38;1.35;;;;;;;;;;5077891;28;19946;-80
2023/03/23 12:14:14;;;;;;;8.30;2.25;;;;;;;;;;5094652;28;20024;-81
2023/03/23 12:16:55;;;;;;;3.90;1.52;;;;;;;;;;5094812;28;20105;-81
2023/03/23 12:19:29;;;;;;;4.18;1.48;;;;;;;;;;5096003;28;20027;-81
2023/03/23 12:22:13;;;;;;;5.93;1.83;;;;;;;;;;5094466;28;20437;-81
2023/03/23 12:24:44;;;;;;;4.88;1.77;;;;;;;;;;5094640;28;20047;-81
2023/03/23 12:27:22;;;;;;;3.58;1.42;;;;;;;;;;5095642;28;20024;-81
2023/03/23 12:30:15;;;;;;;4.15;1.50;;;;;;;;;;5077754;28;20024;-81
2023/03/23 12:33:12;;;;;;;4.23;1.73;;;;;;;;;;5095811;28;20032;-81
2023/03/23 12:35:37;;;;;;;5.47;1.50;;;;;;;;;;5095625;28;20028;-82
2023/03/23 12:38:25;;;;;;;4.80;1.83;;;;;;;;;;5095643;28;20023;-81
2023/03/23 12:40:59;;;;;;;7.75;1.77;;;;;;;;;;5096316;28;20056;-81
2023/03/23 12:43:30;;;;;;;8.98;1.75;;;;;;;;;;5095242;28;20047;-81
2023/03/23 12:46:34;;;;;;;3.55;1.50;;;;;;;;;;5096192;28;20091;-81
2023/03/23 12:49:04;;;;;;;3.90;1.60;;;;;;;;;;5096893;28;20034;-81
2023/03/23 12:51:34;;;;;;;6.03;1.70;;;;;;;;;;5094717;28;20406;-81
2023/03/23 12:54:18;;;;;;;4.45;1.65;;;;;;;;;;5094324;28;20020;-83
2023/03/23 12:56:43;;;;;;;;;;;;;;;;;;5096137;28;20078;-81
2023/03/23 12:59:35;;;;;;;5.13;1.60;;;;;;;;;;5096040;28;19940;-82
2023/03/23 13:02:10;;;;;;;3.78;1.67;;;;;;;;;;5102654;28;20099;-80
2023/03/23 13:04:39;;;;;;;4.55;1.85;;;;;;;;;;5098245;28;20050;-82
2023/03/23 13:07:09;;;;;;;6.03;1.83;;;;;;;;;;5094604;28;20029;-81
2023/03/23 13:10:26;;;;;;;5.32;1.60;;;;;;;;;;5094036;28;20031;-82
2023/03/23 13:12:52;;;;;;;5.30;1.85;;;;;;;;;;5095040;28;20024;-82
2023/03/23 13:15:23;;;;;;;3.95;1.40;;;;;;;;;;5076813;28;20075;-81
2023/03/23 13:18:04;;;;;;;4.65;1.52;;;;;;;;;;5087838;28;20027;-81
2023/03/23 13:20:51;;;;;;;4.63;1.35;;;;;;;;;;5073762;28;20047;-83
2023/03/23 13:23:19;;;;;;;3.10;1.33;;;;;;;;;;5073545;28;20486;-82
2023/03/23 13:25:59;;;;;;;3.55;1.45;;;;;;;;;;5074483;28;20026;-81
2023/03/23 13:28:28;;;;;;;5.88;1.88;;;;;;;;;;5073277;28;20029;-81
2023/03/23 13:31:13;;;;;;;6.22;1.50;;;;;;;;;;5078158;28;20044;-80
2023/03/23 13:33:40;;;;;;;8.45;1.60;;;;;;;;;;5085686;28;20047;-82
2023/03/23 13:36:13;;;;;;;8.80;1.73;;;;;;;;;;5074563;28;20036;-79
2023/03/23 13:38:43;;;;;;;7.45;1.73;;;;;;;;;;5057057;28;20519;-81
2023/03/23 13:41:11;;;;;;;4.03;1.50;;;;;;;;;;5056109;28;20074;-81
2023/03/23 13:43:38;;;;;;;8.90;1.52;;;;;;;;;;5057492;28;21002;-81
2023/03/23 13:46:24;;;;;;;3.20;1.50;;;;;;;;;;5092207;28;20497;-81
2023/03/23 13:49:02;;;;;;;2.10;1.20;;;;;;;;;;5062501;28;20028;-83
2023/03/23 13:51:31;;;;;;;3.20;1.45;;;;;;;;;;5084549;28;20145;-81
2023/03/23 13:54:29;;;;;;;2.33;1.33;;;;;;;;;;5093452;28;20027;-81
2023/03/23 13:56:56;;;;;;;4.97;1.58;;;;;;;;;;5006078;28;20055;-82
2023/03/23 13:59:27;;;;;;;4.47;1.67;;;;;;;;;;5074872;28;20032;-82
2023/03/23 14:02:17;;;;;;;6.82;1.65;;;;;;;;;;5093407;28;20020;-81
2023/03/23 14:04:42;;;;;;;3.90;1.33;;;;;;;;;;5093076;28;20024;-80
2023/03/23 14:07:10;;;;;;;6.65;1.50;;;;;;;;;;5075502;28;20185;-80
2023/03/23 14:09:42;;;;;;;3.33;1.60;;;;;;;;;;5058605;28;20039;-80
2023/03/23 14:12:19;;;;;;;3.70;1.58;;;;;;;;;;5075785;28;20030;-80
2023/03/23 14:14:50;;;;;;;4.93;1.75;;;;;;;;;;5094154;28;20043;-81
2023/03/23 14:17:26;;;;;;;5.57;1.67;;;;;;;;;;5054514;28;20044;-80
2023/03/23 14:19:55;;;;;;;2.80;1.27;;;;;;;;;;5080556;28;20027;-81
2023/03/23 14:22:35;;;;;;;4.03;1.70;;;;;;;;;;5077909;28;20024;-82
2023/03/23 14:25:18;;;;;;;6.03;1.50;;;;;;;;;;5079501;28;20023;-83
2023/03/23 14:27:47;;;;;;;4.32;1.63;;;;;;;;;;5083607;28;20027;-80
2023/03/23 14:30:14;;;;;;;3.38;1.63;;;;;;;;;;5074355;28;20043;-82
2023/03/23 14:32:40;;;;;;;4.88;1.48;;;;;;;;;;5092754;28;20020;-80
2023/03/23 14:35:12;;;;;;;2.15;1.30;;;;;;;;;;5074957;28;20432;-81
2023/03/23 14:37:37;;;;;;;2.78;1.40;;;;;;;;;;5058636;28;20020;-80
2023/03/23 14:40:06;;;;;;;4.75;1.50;;;;;;;;;;5058537;28;20042;-80
2023/03/23 14:42:34;;;;;;;3.97;1.30;;;;;;;;;;5075475;28;20024;-80
2023/03/23 14:45:03;;;;;;;3.17;1.40;;;;;;;;;;5074678;28;20090;-81
2023/03/23 14:47:32;;;;;;;3.55;1.55;;;;;;;;;;5075231;28;20401;-81
2023/03/23 14:50:00;;;;;;;4.93;1.70;;;;;;;;;;5058749;28;20035;-80
2023/03/23 14:52:29;;;;;;;5.60;1.67;;;;;;;;;;5074894;28;20134;-81
2023/03/23 14:54:55;;;;;;;2.78;1.40;;;;;;;;;;5075210;28;20490;-83
2023/03/23 14:57:23;;;;;;;3.22;1.40;;;;;;;;;;5074945;28;20028;-81
2023/03/23 14:59:49;;;;;;;4.60;1.42;;;;;;;;;;5075179;28;20028;-81
2023/03/23 15:02:36;;;;;;;4.78;1.67;;;;;;;;;;5067401;28;20520;-81